createdAt,value
2022-08-28T00:00:46.955Z,85.05
2022-08-28T00:01:46.946Z,85.05
2022-08-28T00:02:46.965Z,84.65
2022-08-28T00:03:46.948Z,84.65
2022-08-28T00:04:46.954Z,84.95
2022-08-28T00:05:46.898Z,84.65
2022-08-28T00:06:46.886Z,84.75
2022-08-28T00:07:48.008Z,84.85
2022-08-28T00:08:46.891Z,84.75
2022-08-28T00:09:46.857Z,85.16
2022-08-28T00:10:46.842Z,84.95
2022-08-28T00:11:46.838Z,85.16
2022-08-28T00:12:46.828Z,85.16
2022-08-28T00:13:46.809Z,85.16
2022-08-28T00:14:46.820Z,84.85
2022-08-28T00:15:46.853Z,84.95
2022-08-28T00:16:46.778Z,84.85
2022-08-28T00:17:46.771Z,84.75
2022-08-28T00:18:46.979Z,85.05
2022-08-28T00:19:46.751Z,85.25
2022-08-28T00:20:46.730Z,84.75
2022-08-28T00:21:46.747Z,84.95
2022-08-28T00:22:46.710Z,85.05
2022-08-28T00:23:46.700Z,85.16
2022-08-28T00:24:46.709Z,85.36
2022-08-28T00:25:46.679Z,85.36
2022-08-28T00:26:46.689Z,85.46
2022-08-28T00:27:46.659Z,85.56
2022-08-28T00:28:46.680Z,85.56
2022-08-28T00:29:46.638Z,85.25
2022-08-28T00:30:46.638Z,85.56
2022-08-28T00:31:46.710Z,85.76
2022-08-28T00:32:46.601Z,85.30
2022-08-28T00:33:48.167Z,85.60
2022-08-28T00:34:46.589Z,85.70
2022-08-28T00:35:46.572Z,85.90
2022-08-28T00:36:46.582Z,86.10
2022-08-28T00:37:46.542Z,86.21
2022-08-28T00:38:46.534Z,85.90
2022-08-28T00:39:46.525Z,85.90
2022-08-28T00:40:46.532Z,86.31
2022-08-28T00:41:46.501Z,86.10
2022-08-28T00:42:46.548Z,86.10
2022-08-28T00:43:46.490Z,86.00
2022-08-28T00:44:46.464Z,86.00
2022-08-28T00:45:46.462Z,85.80
2022-08-28T00:46:46.498Z,85.66
2022-08-28T00:47:46.444Z,85.66
2022-08-28T00:48:46.459Z,85.96
2022-08-28T00:49:46.423Z,85.76
2022-08-28T00:50:46.403Z,85.76
2022-08-28T00:51:46.415Z,85.46
2022-08-28T00:52:46.385Z,85.56
2022-08-28T00:53:46.396Z,85.46
2022-08-28T00:54:59.119Z,85.25
2022-08-28T00:55:47.352Z,85.25
2022-08-28T00:56:46.336Z,85.16
2022-08-28T00:57:46.344Z,85.16
2022-08-28T00:58:46.359Z,85.16
2022-08-28T00:59:46.315Z,84.95
2022-08-28T01:00:46.297Z,85.16
2022-08-28T01:01:46.340Z,85.36
2022-08-28T01:02:46.301Z,85.46
2022-08-28T01:03:46.268Z,85.10
2022-08-28T01:04:46.276Z,85.30
2022-08-28T01:05:46.256Z,85.60
2022-08-28T01:06:46.236Z,85.80
2022-08-28T01:07:46.217Z,85.90
2022-08-28T01:08:46.206Z,85.80
2022-08-28T01:09:46.229Z,85.90
2022-08-28T01:10:46.186Z,86.15
2022-08-28T01:11:46.187Z,86.35
2022-08-28T01:12:46.168Z,86.45
2022-08-28T01:13:46.177Z,86.35
2022-08-28T01:14:46.146Z,86.55
2022-08-28T01:15:46.180Z,86.65
2022-08-28T01:16:46.120Z,86.76
2022-08-28T01:17:46.118Z,86.76
2022-08-28T01:18:46.128Z,86.65
2022-08-28T01:19:46.090Z,86.65
2022-08-28T01:20:46.070Z,86.96
2022-08-28T01:21:46.069Z,87.05
2022-08-28T01:22:46.049Z,86.96
2022-08-28T01:23:46.062Z,87.10
2022-08-28T01:24:46.053Z,87.30
2022-08-28T01:25:46.022Z,87.30
2022-08-28T01:26:46.007Z,87.40
2022-08-28T01:27:45.997Z,87.60
2022-08-28T01:28:45.982Z,87.81
2022-08-28T01:29:47.946Z,87.71
2022-08-28T01:30:45.999Z,87.51
2022-08-28T01:31:46.015Z,87.71
2022-08-28T01:32:45.942Z,87.71
2022-08-28T01:33:45.950Z,87.71
2022-08-28T01:34:45.919Z,87.71
2022-08-28T01:35:45.910Z,87.71
2022-08-28T01:36:45.922Z,87.81
2022-08-28T01:37:45.895Z,88.01
2022-08-28T01:38:45.871Z,88.11
2022-08-28T01:39:45.863Z,88.21
2022-08-28T01:40:45.853Z,88.11
2022-08-28T01:41:45.873Z,88.11
2022-08-28T01:42:45.832Z,88.21
2022-08-28T01:43:45.822Z,88.21
2022-08-28T01:44:45.810Z,88.25
2022-08-28T01:45:45.802Z,88.46
2022-08-28T01:46:45.829Z,88.76
2022-08-28T01:47:52.848Z,88.86
2022-08-28T01:48:45.775Z,88.96
2022-08-28T01:49:45.761Z,88.96
2022-08-28T01:50:45.740Z,89.06
2022-08-28T01:51:45.739Z,89.17
2022-08-28T01:52:45.749Z,89.17
2022-08-28T01:53:46.581Z,89.17
2022-08-28T01:54:45.699Z,89.17
2022-08-28T01:55:45.691Z,89.17
2022-08-28T01:56:45.681Z,89.17
2022-08-28T01:57:45.670Z,89.26
2022-08-28T01:58:45.674Z,89.51
2022-08-28T01:59:45.651Z,89.72
2022-08-28T02:00:45.632Z,89.92
2022-08-28T02:01:45.677Z,89.92
2022-08-28T02:02:45.612Z,89.92
2022-08-28T02:03:45.661Z,89.92
2022-08-28T02:04:48.203Z,90.12
2022-08-28T02:05:45.584Z,90.12
2022-08-28T02:06:45.562Z,90.12
2022-08-28T02:07:45.564Z,90.12
2022-08-28T02:08:45.564Z,90.42
2022-08-28T02:09:45.544Z,90.22
2022-08-28T02:10:45.523Z,90.32
2022-08-28T02:11:46.546Z,90.32
2022-08-28T02:12:45.523Z,90.42
2022-08-28T02:13:45.497Z,90.32
2022-08-28T02:14:46.482Z,90.42
2022-08-28T02:15:45.489Z,90.32
2022-08-28T02:16:45.455Z,90.22
2022-08-28T02:17:45.473Z,90.22
2022-08-28T02:18:45.433Z,90.22
2022-08-28T02:19:45.425Z,90.32
2022-08-28T02:20:45.412Z,90.47
2022-08-28T02:21:45.403Z,90.67
2022-08-28T02:22:45.413Z,90.77
2022-08-28T02:23:45.388Z,91.08
2022-08-28T02:24:45.375Z,90.97
2022-08-28T02:25:45.365Z,91.17
2022-08-28T02:26:45.346Z,91.17
2022-08-28T02:27:45.356Z,91.28
2022-08-28T02:28:45.324Z,91.38
2022-08-28T02:29:45.318Z,91.38
2022-08-28T02:30:45.338Z,91.63
2022-08-28T02:31:45.295Z,91.73
2022-08-28T02:32:45.305Z,91.73
2022-08-28T02:33:45.285Z,91.83
2022-08-28T02:34:45.259Z,91.93
2022-08-28T02:35:45.255Z,92.03
2022-08-28T02:36:45.257Z,92.03
2022-08-28T02:37:45.443Z,92.24
2022-08-28T02:38:45.220Z,92.33
2022-08-28T02:39:45.228Z,92.44
2022-08-28T02:40:45.195Z,92.54
2022-08-28T02:41:45.187Z,92.64
2022-08-28T02:42:45.176Z,92.64
2022-08-28T02:43:45.172Z,92.84
2022-08-28T02:44:45.169Z,92.84
2022-08-28T02:45:45.214Z,92.84
2022-08-28T02:46:45.137Z,92.94
2022-08-28T02:47:45.127Z,93.05
2022-08-28T02:48:45.110Z,93.19
2022-08-28T02:49:45.107Z,93.29
2022-08-28T02:50:45.110Z,93.49
2022-08-28T02:51:45.076Z,93.49
2022-08-28T02:52:45.107Z,93.49
2022-08-28T02:53:45.049Z,93.60
2022-08-28T02:54:45.070Z,93.70
2022-08-28T02:55:45.049Z,93.80
2022-08-28T02:56:45.026Z,94.00
2022-08-28T02:57:45.009Z,94.10
2022-08-28T02:58:45.000Z,94.21
2022-08-28T02:59:44.988Z,94.25
2022-08-28T03:00:44.999Z,94.35
2022-08-28T03:01:45.015Z,94.35
2022-08-28T03:02:45.036Z,94.45
2022-08-28T03:03:44.945Z,94.66
2022-08-28T03:04:44.931Z,94.66
2022-08-28T03:05:44.960Z,94.76
2022-08-28T03:06:44.910Z,94.66
2022-08-28T03:07:44.901Z,94.76
2022-08-28T03:08:44.893Z,94.86
2022-08-28T03:09:44.881Z,94.96
2022-08-28T03:10:44.869Z,95.06
2022-08-28T03:11:44.881Z,95.17
2022-08-28T03:12:44.845Z,95.17
2022-08-28T03:13:44.832Z,95.26
2022-08-28T03:14:44.822Z,95.26
2022-08-28T03:15:44.821Z,95.37
2022-08-28T03:16:44.846Z,95.41
2022-08-28T03:17:44.812Z,95.62
2022-08-28T03:18:44.780Z,95.51
2022-08-28T03:19:44.770Z,95.62
2022-08-28T03:20:44.755Z,95.72
2022-08-28T03:21:44.772Z,95.82
2022-08-28T03:22:44.734Z,95.92
2022-08-28T03:23:44.733Z,95.92
2022-08-28T03:24:44.715Z,96.02
2022-08-28T03:25:44.712Z,96.12
2022-08-28T03:26:44.713Z,96.02
2022-08-28T03:27:44.674Z,96.12
2022-08-28T03:28:44.675Z,96.02
2022-08-28T03:29:44.662Z,96.12
2022-08-28T03:30:44.669Z,96.23
2022-08-28T03:31:44.657Z,96.27
2022-08-28T03:32:44.628Z,96.37
2022-08-28T03:33:44.612Z,96.37
2022-08-28T03:34:44.605Z,96.37
2022-08-28T03:35:44.595Z,96.37
2022-08-28T03:36:44.584Z,96.37
2022-08-28T03:37:44.596Z,96.47
2022-08-28T03:38:44.568Z,96.58
2022-08-28T03:39:44.546Z,96.68
2022-08-28T03:40:44.536Z,96.58
2022-08-28T03:41:44.553Z,96.68
2022-08-28T03:42:53.054Z,96.68
2022-08-28T03:43:45.497Z,96.58
2022-08-28T03:44:44.506Z,96.68
2022-08-28T03:45:44.511Z,96.58
2022-08-28T03:46:44.476Z,96.58
2022-08-28T03:47:44.467Z,96.58
2022-08-28T03:48:44.988Z,96.58
2022-08-28T03:49:44.436Z,96.68
2022-08-28T03:50:44.428Z,96.58
2022-08-28T03:51:44.426Z,96.58
2022-08-28T03:52:44.426Z,96.47
2022-08-28T03:53:44.391Z,96.47
2022-08-28T03:54:44.397Z,96.47
2022-08-28T03:55:44.368Z,96.47
2022-08-28T03:56:44.366Z,96.47
2022-08-28T03:57:44.368Z,96.37
2022-08-28T03:58:44.347Z,96.58
2022-08-28T03:59:44.331Z,96.37
2022-08-28T04:00:44.326Z,96.37
2022-08-28T04:01:44.378Z,96.47
2022-08-28T04:02:44.328Z,96.47
2022-08-28T04:03:44.400Z,96.47
2022-08-28T04:04:44.289Z,96.58
2022-08-28T04:05:44.265Z,96.47
2022-08-28T04:06:44.258Z,96.62
2022-08-28T04:07:44.240Z,96.83
2022-08-28T04:08:44.262Z,97.03
2022-08-28T04:09:44.229Z,97.23
2022-08-28T04:10:44.235Z,97.33
2022-08-28T04:11:44.203Z,97.53
2022-08-28T04:12:44.190Z,97.64
2022-08-28T04:13:44.199Z,97.78
2022-08-28T04:14:44.168Z,97.89
2022-08-28T04:15:44.160Z,97.89
2022-08-28T04:16:44.191Z,97.99
2022-08-28T04:17:44.132Z,97.99
2022-08-28T04:18:44.150Z,98.09
2022-08-28T04:19:44.110Z,98.30
2022-08-28T04:20:46.442Z,98.39
2022-08-28T04:21:44.114Z,98.50
2022-08-28T04:22:44.082Z,98.60
2022-08-28T04:23:44.102Z,98.60
2022-08-28T04:24:44.064Z,98.60
2022-08-28T04:25:44.043Z,98.60
2022-08-28T04:26:44.042Z,98.70
2022-08-28T04:27:44.032Z,98.70
2022-08-28T04:28:44.021Z,98.80
2022-08-28T04:29:44.022Z,98.80
2022-08-28T04:30:44.002Z,98.95
2022-08-28T04:31:44.013Z,99.05
2022-08-28T04:32:43.973Z,99.16
2022-08-28T04:33:43.964Z,99.26
2022-08-28T04:34:43.972Z,99.36
2022-08-28T04:35:43.957Z,99.36
2022-08-28T04:36:43.935Z,99.46
2022-08-28T04:37:43.920Z,99.56
2022-08-28T04:38:44.325Z,99.56
2022-08-28T04:39:43.914Z,99.56
2022-08-28T04:40:43.892Z,99.56
2022-08-28T04:41:43.873Z,99.81
2022-08-28T04:42:43.875Z,99.81
2022-08-28T04:43:43.864Z,99.99
2022-08-28T04:44:43.870Z,99.99
2022-08-28T04:45:43.893Z,99.99
2022-08-28T04:46:43.825Z,99.99
2022-08-28T04:47:43.807Z,99.99
2022-08-28T04:48:43.803Z,99.99
2022-08-28T04:49:43.813Z,99.99
2022-08-28T04:50:43.775Z,99.99
2022-08-28T04:51:43.764Z,99.99
2022-08-28T04:52:43.791Z,99.99
2022-08-28T04:53:43.745Z,99.99
2022-08-28T04:54:43.754Z,99.99
2022-08-28T04:55:54.350Z,99.99
2022-08-28T04:56:44.716Z,99.99
2022-08-28T04:57:43.696Z,99.99
2022-08-28T04:58:43.692Z,99.99
2022-08-28T04:59:43.705Z,99.99
2022-08-28T05:00:43.727Z,99.99
2022-08-28T05:01:43.655Z,99.99
2022-08-28T05:02:43.647Z,99.99
2022-08-28T05:03:43.635Z,99.99
2022-08-28T05:04:43.626Z,99.99
2022-08-28T05:05:43.637Z,99.99
2022-08-28T05:06:43.606Z,99.97
2022-08-28T05:07:43.588Z,99.97
2022-08-28T05:08:43.586Z,99.87
2022-08-28T05:09:43.576Z,99.77
2022-08-28T05:10:43.584Z,99.77
2022-08-28T05:11:43.546Z,99.66
2022-08-28T05:12:43.536Z,99.77
2022-08-28T05:13:43.528Z,99.77
2022-08-28T05:14:43.517Z,99.66
2022-08-28T05:15:43.547Z,99.77
2022-08-28T05:16:43.628Z,99.77
2022-08-28T05:17:43.478Z,99.66
2022-08-28T05:18:43.477Z,99.77
2022-08-28T05:19:43.496Z,99.62
2022-08-28T05:20:43.499Z,99.56
2022-08-28T05:21:43.506Z,99.56
2022-08-28T05:22:43.481Z,99.52
2022-08-28T05:23:43.428Z,99.41
2022-08-28T05:24:43.427Z,99.21
2022-08-28T05:25:43.407Z,99.21
2022-08-28T05:26:43.417Z,99.21
2022-08-28T05:27:43.371Z,99.31
2022-08-28T05:28:43.369Z,99.21
2022-08-28T05:29:43.360Z,99.21
2022-08-28T05:30:43.341Z,99.11
2022-08-28T05:31:43.400Z,99.01
2022-08-28T05:32:43.320Z,99.11
2022-08-28T05:33:43.310Z,99.11
2022-08-28T05:34:43.302Z,99.01
2022-08-28T05:35:43.289Z,99.21
2022-08-28T05:36:43.280Z,99.26
2022-08-28T05:37:43.290Z,99.41
2022-08-28T05:38:43.260Z,99.41
2022-08-28T05:39:43.249Z,99.31
2022-08-28T05:40:43.240Z,99.31
2022-08-28T05:41:43.230Z,99.31
2022-08-28T05:42:43.228Z,99.31
2022-08-28T05:43:43.222Z,99.31
2022-08-28T05:44:43.192Z,99.31
2022-08-28T05:45:43.215Z,99.16
2022-08-28T05:46:43.172Z,99.06
2022-08-28T05:47:43.153Z,98.86
2022-08-28T05:48:43.171Z,98.66
2022-08-28T05:49:43.139Z,98.55
2022-08-28T05:50:48.116Z,98.55
2022-08-28T05:51:44.115Z,98.41
2022-08-28T05:52:43.103Z,98.20
2022-08-28T05:53:43.165Z,98.20
2022-08-28T05:54:43.102Z,98.00
2022-08-28T05:55:43.073Z,98.00
2022-08-28T05:56:43.064Z,97.89
2022-08-28T05:57:43.052Z,97.89
2022-08-28T05:58:43.042Z,97.65
2022-08-28T05:59:43.054Z,97.34
2022-08-28T06:00:43.023Z,97.24
2022-08-28T06:01:43.100Z,97.14
2022-08-28T06:02:43.003Z,97.04
2022-08-28T06:03:43.049Z,96.63
2022-08-28T06:04:42.975Z,96.59
2022-08-28T06:05:42.985Z,96.28
2022-08-28T06:06:42.956Z,96.08
2022-08-28T06:07:42.947Z,95.98
2022-08-28T06:08:58.560Z,95.94
2022-08-28T06:09:43.947Z,95.73
2022-08-28T06:10:42.905Z,95.42
2022-08-28T06:11:44.822Z,95.12
2022-08-28T06:12:42.886Z,95.32
2022-08-28T06:13:42.874Z,95.22
2022-08-28T06:14:42.896Z,95.18
2022-08-28T06:15:42.855Z,94.77
2022-08-28T06:16:42.868Z,94.46
2022-08-28T06:17:42.827Z,94.17
2022-08-28T06:18:42.823Z,93.86
2022-08-28T06:19:42.807Z,93.76
2022-08-28T06:20:42.827Z,93.61
2022-08-28T06:21:42.786Z,93.30
2022-08-28T06:22:42.778Z,93.21
2022-08-28T06:23:42.766Z,92.90
2022-08-28T06:24:42.758Z,92.90
2022-08-28T06:25:42.769Z,92.90
2022-08-28T06:26:42.740Z,92.76
2022-08-28T06:27:42.718Z,92.65
2022-08-28T06:28:42.716Z,92.55
2022-08-28T06:29:42.699Z,92.05
2022-08-28T06:30:52.831Z,92.05
2022-08-28T06:31:43.780Z,92.14
2022-08-28T06:32:42.669Z,91.85
2022-08-28T06:33:42.668Z,91.74
2022-08-28T06:34:42.651Z,91.85
2022-08-28T06:35:42.638Z,91.85
2022-08-28T06:36:42.620Z,91.80
2022-08-28T06:37:42.640Z,91.39
2022-08-28T06:38:42.608Z,91.30
2022-08-28T06:39:42.595Z,91.09
2022-08-28T06:40:42.587Z,90.79
2022-08-28T06:41:42.589Z,90.34
2022-08-28T06:42:42.559Z,90.14
2022-08-28T06:43:42.548Z,90.14
2022-08-28T06:44:42.550Z,89.63
2022-08-28T06:45:42.552Z,89.59
2022-08-28T06:46:42.569Z,89.18
2022-08-28T06:47:42.500Z,88.98
2022-08-28T06:48:42.500Z,88.98
2022-08-28T06:49:42.481Z,88.98
2022-08-28T06:50:42.481Z,88.98
2022-08-28T06:51:42.460Z,88.88
2022-08-28T06:52:42.471Z,88.98
2022-08-28T06:53:42.440Z,88.94
2022-08-28T06:54:45.658Z,88.57
2022-08-28T06:55:43.411Z,88.43
2022-08-28T06:56:42.411Z,88.33
2022-08-28T06:57:42.423Z,88.02
2022-08-28T06:58:42.390Z,87.73
2022-08-28T06:59:43.371Z,88.02
2022-08-28T07:00:42.363Z,87.82
2022-08-28T07:01:42.406Z,87.42
2022-08-28T07:02:42.386Z,87.62
2022-08-28T07:03:44.295Z,87.79
2022-08-28T07:04:42.320Z,87.99
2022-08-28T07:05:42.304Z,87.58
2022-08-28T07:06:42.301Z,87.48
2022-08-28T07:07:42.284Z,87.13
2022-08-28T07:08:42.303Z,86.98
2022-08-28T07:09:42.263Z,87.44
2022-08-28T07:10:42.266Z,86.83
2022-08-28T07:11:42.234Z,87.84
2022-08-28T07:12:42.240Z,86.43
2022-08-28T07:13:42.216Z,86.29
2022-08-28T07:14:42.244Z,86.19
2022-08-28T07:15:42.259Z,86.49
2022-08-28T07:16:42.289Z,86.19
2022-08-28T07:17:42.174Z,86.15
2022-08-28T07:18:42.167Z,85.54
2022-08-28T07:19:42.174Z,85.44
2022-08-28T07:20:42.146Z,84.93
2022-08-28T07:21:42.127Z,84.83
2022-08-28T07:22:42.119Z,83.12
2022-08-28T07:23:42.132Z,83.82
2022-08-28T07:24:42.135Z,84.19
2022-08-28T07:25:42.087Z,83.18
2022-08-28T07:26:42.079Z,83.38
2022-08-28T07:27:42.083Z,82.73
2022-08-28T07:28:42.068Z,83.04
2022-08-28T07:29:42.057Z,83.24
2022-08-28T07:30:42.075Z,82.79
2022-08-28T07:31:42.047Z,82.70
2022-08-28T07:32:42.007Z,82.19
2022-08-28T07:33:42.000Z,81.65
2022-08-28T07:34:41.996Z,81.35
2022-08-28T07:35:41.976Z,81.04
2022-08-28T07:36:41.975Z,80.04
2022-08-28T07:37:41.978Z,79.93
2022-08-28T07:38:41.949Z,80.44
2022-08-28T07:39:41.936Z,80.64
2022-08-28T07:40:41.924Z,80.84
2022-08-28T07:41:41.939Z,80.10
2022-08-28T07:42:41.902Z,79.29
2022-08-28T07:43:41.888Z,78.79
2022-08-28T07:44:41.869Z,77.98
2022-08-28T07:45:41.895Z,77.38
2022-08-28T07:46:41.851Z,76.87
2022-08-28T07:47:49.010Z,76.67
2022-08-28T07:48:41.830Z,76.94
2022-08-28T07:49:41.849Z,76.64
2022-08-28T07:50:41.811Z,76.34
2022-08-28T07:51:41.804Z,76.94
2022-08-28T07:52:41.792Z,76.34
2022-08-28T07:53:41.783Z,75.93
2022-08-28T07:54:41.770Z,76.50
2022-08-28T07:55:41.783Z,75.70
2022-08-28T07:56:41.744Z,75.19
2022-08-28T07:57:41.762Z,75.29
2022-08-28T07:58:41.723Z,75.70
2022-08-28T07:59:42.258Z,75.86
2022-08-28T08:00:41.724Z,74.45
2022-08-28T08:01:41.828Z,74.85
2022-08-28T08:02:41.674Z,74.65
2022-08-28T08:03:41.803Z,75.15
2022-08-28T08:04:41.653Z,74.01
2022-08-28T08:05:41.645Z,72.61
2022-08-28T08:06:41.634Z,72.64
2022-08-28T08:07:41.889Z,73.24
2022-08-28T08:08:41.615Z,74.11
2022-08-28T08:09:41.630Z,73.78
2022-08-28T08:10:41.596Z,73.47
2022-08-28T08:11:41.584Z,73.38
2022-08-28T08:12:41.574Z,73.64
2022-08-28T08:13:41.585Z,72.44
2022-08-28T08:14:41.548Z,71.60
2022-08-28T08:15:41.556Z,70.23
2022-08-28T08:16:41.525Z,71.43
2022-08-28T08:17:41.517Z,70.63
2022-08-28T08:18:41.506Z,69.72
2022-08-28T08:19:41.517Z,71.13
2022-08-28T08:20:41.487Z,70.59
2022-08-28T08:21:41.478Z,69.49
2022-08-28T08:22:41.469Z,68.76
2022-08-28T08:23:41.456Z,67.75
2022-08-28T08:24:41.456Z,67.14
2022-08-28T08:25:41.430Z,67.78
2022-08-28T08:26:41.419Z,68.38
2022-08-28T08:27:43.183Z,68.38
2022-08-28T08:28:41.395Z,69.06
2022-08-28T08:29:41.411Z,68.22
2022-08-28T08:30:41.405Z,67.08
2022-08-28T08:31:43.959Z,66.65
2022-08-28T08:32:41.348Z,65.45
2022-08-28T08:33:41.346Z,64.22
2022-08-28T08:34:41.350Z,64.92
2022-08-28T08:35:41.321Z,65.01
2022-08-28T08:36:41.309Z,64.51
2022-08-28T08:37:41.299Z,64.09
2022-08-28T08:38:41.282Z,64.15
2022-08-28T08:39:41.300Z,63.25
2022-08-28T08:40:41.278Z,62.72
2022-08-28T08:41:41.259Z,62.12
2022-08-28T08:42:41.269Z,61.82
2022-08-28T08:43:41.233Z,61.82
2022-08-28T08:44:41.245Z,61.72
2022-08-28T08:45:41.215Z,61.92
2022-08-28T08:46:41.266Z,61.42
2022-08-28T08:47:41.192Z,62.12
2022-08-28T08:48:41.173Z,60.95
2022-08-28T08:49:41.197Z,62.51
2022-08-28T08:50:41.161Z,63.84
2022-08-28T08:51:41.154Z,63.71
2022-08-28T08:52:41.132Z,62.81
2022-08-28T08:53:41.124Z,64.04
2022-08-28T08:54:41.114Z,64.04
2022-08-28T08:55:41.126Z,63.81
2022-08-28T08:56:41.097Z,63.39
2022-08-28T08:57:41.083Z,62.38
2022-08-28T08:58:41.074Z,62.08
2022-08-28T08:59:41.057Z,61.85
2022-08-28T09:00:41.065Z,61.25
2022-08-28T09:01:41.059Z,60.65
2022-08-28T09:02:41.036Z,60.65
2022-08-28T09:03:44.103Z,60.55
2022-08-28T09:04:41.008Z,61.05
2022-08-28T09:05:41.026Z,61.45
2022-08-28T09:06:40.988Z,62.15
2022-08-28T09:07:40.984Z,61.78
2022-08-28T09:08:40.978Z,62.58
2022-08-28T09:09:40.960Z,62.78
2022-08-28T09:10:40.938Z,62.41
2022-08-28T09:11:40.958Z,63.51
2022-08-28T09:12:40.927Z,62.81
2022-08-28T09:13:40.919Z,63.51
2022-08-28T09:14:40.891Z,63.71
2022-08-28T09:15:42.773Z,64.48
2022-08-28T09:16:41.898Z,63.56
2022-08-28T09:17:40.866Z,63.53
2022-08-28T09:18:40.860Z,62.72
2022-08-28T09:19:40.848Z,61.68
2022-08-28T09:20:40.851Z,63.11
2022-08-28T09:21:40.843Z,64.25
2022-08-28T09:22:40.811Z,64.15
2022-08-28T09:23:40.800Z,64.48
2022-08-28T09:24:40.792Z,65.38
2022-08-28T09:25:40.781Z,64.48
2022-08-28T09:26:40.783Z,64.40
2022-08-28T09:27:40.761Z,63.98
2022-08-28T09:28:40.761Z,64.75
2022-08-28T09:29:40.741Z,63.14
2022-08-28T09:30:40.769Z,63.42
2022-08-28T09:31:40.738Z,62.88
2022-08-28T09:32:40.702Z,61.55
2022-08-28T09:33:41.796Z,61.52
2022-08-28T09:34:40.684Z,61.49
2022-08-28T09:35:40.665Z,60.99
2022-08-28T09:36:40.685Z,60.96
2022-08-28T09:37:40.665Z,60.66
2022-08-28T09:38:40.634Z,60.66
2022-08-28T09:39:40.636Z,60.96
2022-08-28T09:40:40.650Z,60.10
2022-08-28T09:41:40.633Z,60.77
2022-08-28T09:42:40.586Z,61.36
2022-08-28T09:43:40.576Z,61.46
2022-08-28T09:44:40.583Z,60.66
2022-08-28T09:45:40.558Z,60.57
2022-08-28T09:46:40.647Z,60.93
2022-08-28T09:47:46.218Z,59.91
2022-08-28T09:48:41.527Z,59.75
2022-08-28T09:49:40.526Z,59.12
2022-08-28T09:50:40.509Z,57.53
2022-08-28T09:51:40.548Z,55.83
2022-08-28T09:52:40.499Z,56.98
2022-08-28T09:53:40.487Z,58.73
2022-08-28T09:54:40.478Z,58.71
2022-08-28T09:55:40.450Z,57.46
2022-08-28T09:56:40.448Z,59.69
2022-08-28T09:57:40.456Z,59.09
2022-08-28T09:58:40.421Z,59.12
2022-08-28T09:59:40.411Z,60.22
2022-08-28T10:00:40.391Z,58.37
2022-08-28T10:01:40.465Z,57.31
2022-08-28T10:02:40.397Z,56.18
2022-08-28T10:03:40.380Z,56.96
2022-08-28T10:04:40.403Z,57.17
2022-08-28T10:05:40.349Z,58.37
2022-08-28T10:06:40.330Z,56.57
2022-08-28T10:07:40.341Z,57.44
2022-08-28T10:08:40.313Z,57.74
2022-08-28T10:09:40.320Z,57.86
2022-08-28T10:10:41.283Z,56.15
2022-08-28T10:11:44.214Z,54.21
2022-08-28T10:12:40.303Z,53.16
2022-08-28T10:13:40.254Z,51.70
2022-08-28T10:14:40.263Z,49.64
2022-08-28T10:15:43.311Z,49.71
2022-08-28T10:16:40.215Z,51.92
2022-08-28T10:17:40.258Z,53.91
2022-08-28T10:18:40.198Z,54.94
2022-08-28T10:19:40.213Z,53.34
2022-08-28T10:20:40.184Z,51.82
2022-08-28T10:21:40.166Z,50.23
2022-08-28T10:22:40.202Z,48.08
2022-08-28T10:23:40.147Z,47.81
2022-08-28T10:24:40.133Z,49.46
2022-08-28T10:25:40.144Z,53.16
2022-08-28T10:26:40.115Z,54.24
2022-08-28T10:27:40.146Z,51.50
2022-08-28T10:28:40.087Z,51.95
2022-08-28T10:29:40.088Z,52.14
2022-08-28T10:30:40.121Z,52.76
2022-08-28T10:31:40.057Z,54.48
2022-08-28T10:32:40.046Z,53.51
2022-08-28T10:33:40.040Z,51.54
2022-08-28T10:34:40.049Z,48.69
2022-08-28T10:35:40.022Z,47.26
2022-08-28T10:36:40.009Z,47.14
2022-08-28T10:37:39.991Z,46.89
2022-08-28T10:38:39.990Z,47.88
2022-08-28T10:39:39.999Z,46.70
2022-08-28T10:40:40.018Z,46.23
2022-08-28T10:41:39.952Z,45.90
2022-08-28T10:42:39.950Z,45.79
2022-08-28T10:43:39.942Z,45.03
2022-08-28T10:44:39.942Z,42.83
2022-08-28T10:45:39.912Z,44.32
2022-08-28T10:46:39.969Z,43.46
2022-08-28T10:47:39.885Z,42.93
2022-08-28T10:48:39.875Z,41.69
2022-08-28T10:49:39.868Z,40.56
2022-08-28T10:50:39.855Z,39.62
2022-08-28T10:51:43.644Z,39.00
2022-08-28T10:52:39.834Z,37.98
2022-08-28T10:53:39.828Z,38.23
2022-08-28T10:54:39.806Z,39.03
2022-08-28T10:55:39.808Z,40.74
2022-08-28T10:56:39.844Z,42.90
2022-08-28T10:57:40.154Z,43.17
2022-08-28T10:58:39.779Z,43.93
2022-08-28T10:59:41.886Z,44.01
2022-08-28T11:00:39.759Z,43.63
2022-08-28T11:01:39.813Z,44.26
2022-08-28T11:02:39.810Z,42.97
2022-08-28T11:03:39.730Z,41.73
2022-08-28T11:04:39.717Z,40.01
2022-08-28T11:05:39.709Z,40.09
2022-08-28T11:06:39.718Z,39.54
2022-08-28T11:07:39.688Z,38.72
2022-08-28T11:08:39.678Z,37.79
2022-08-28T11:09:39.662Z,36.94
2022-08-28T11:10:39.652Z,35.89
2022-08-28T11:11:39.713Z,37.19
2022-08-28T11:12:39.657Z,38.92
2022-08-28T11:13:39.623Z,39.82
2022-08-28T11:14:47.901Z,38.84
2022-08-28T11:15:40.593Z,42.38
2022-08-28T11:16:40.331Z,44.58
2022-08-28T11:17:39.593Z,43.15
2022-08-28T11:18:39.564Z,44.09
2022-08-28T11:19:43.865Z,45.38
2022-08-28T11:20:40.538Z,43.33
2022-08-28T11:21:39.538Z,42.85
2022-08-28T11:22:39.545Z,41.49
2022-08-28T11:23:39.523Z,40.03
2022-08-28T11:24:39.499Z,38.70
2022-08-28T11:25:39.498Z,37.68
2022-08-28T11:26:39.487Z,37.30
2022-08-28T11:27:39.470Z,38.52
2022-08-28T11:28:39.492Z,38.29
2022-08-28T11:29:39.449Z,37.38
2022-08-28T11:30:39.478Z,36.72
2022-08-28T11:31:39.449Z,38.85
2022-08-28T11:32:41.509Z,39.64
2022-08-28T11:33:40.442Z,40.94
2022-08-28T11:34:39.400Z,40.31
2022-08-28T11:35:39.401Z,39.47
2022-08-28T11:36:39.381Z,38.72
2022-08-28T11:37:39.374Z,37.78
2022-08-28T11:38:39.359Z,36.55
2022-08-28T11:39:39.382Z,36.88
2022-08-28T11:40:39.466Z,35.87
2022-08-28T11:41:39.343Z,35.07
2022-08-28T11:42:39.333Z,34.65
2022-08-28T11:43:39.314Z,33.93
2022-08-28T11:44:39.324Z,33.40
2022-08-28T11:45:39.983Z,34.09
2022-08-28T11:46:39.346Z,34.08
2022-08-28T11:47:39.275Z,36.60
2022-08-28T11:48:39.270Z,33.79
2022-08-28T11:49:39.247Z,34.49
2022-08-28T11:50:39.268Z,36.75
2022-08-28T11:51:39.260Z,39.39
2022-08-28T11:52:39.217Z,39.50
2022-08-28T11:53:39.216Z,39.60
2022-08-28T11:54:39.200Z,38.91
2022-08-28T11:55:39.201Z,39.17
2022-08-28T11:56:39.182Z,39.03
2022-08-28T11:57:39.199Z,36.95
2022-08-28T11:58:39.161Z,37.95
2022-08-28T11:59:39.185Z,37.34
2022-08-28T12:00:39.147Z,37.48
2022-08-28T12:01:39.131Z,36.96
2022-08-28T12:02:39.184Z,37.23
2022-08-28T12:03:39.242Z,38.27
2022-08-28T12:04:39.257Z,40.31
2022-08-28T12:05:39.093Z,40.56
2022-08-28T12:06:39.084Z,38.54
2022-08-28T12:07:39.073Z,37.03
2022-08-28T12:08:39.064Z,40.90
2022-08-28T12:09:39.083Z,42.40
2022-08-28T12:10:39.044Z,41.86
2022-08-28T12:11:39.035Z,41.71
2022-08-28T12:12:39.037Z,43.43
2022-08-28T12:13:39.009Z,41.25
2022-08-28T12:14:39.025Z,40.00
2022-08-28T12:15:39.079Z,38.66
2022-08-28T12:16:38.989Z,38.12
2022-08-28T12:17:38.986Z,36.43
2022-08-28T12:18:38.966Z,36.06
2022-08-28T12:19:41.541Z,36.63
2022-08-28T12:20:39.969Z,37.19
2022-08-28T12:21:38.963Z,36.00
2022-08-28T12:22:38.931Z,34.98
2022-08-28T12:23:38.919Z,36.57
2022-08-28T12:24:38.907Z,37.76
2022-08-28T12:25:38.892Z,37.25
2022-08-28T12:26:38.909Z,38.02
2022-08-28T12:27:38.871Z,36.71
2022-08-28T12:28:38.862Z,36.12
2022-08-28T12:29:38.851Z,36.72
2022-08-28T12:30:38.889Z,36.10
2022-08-28T12:31:38.854Z,35.89
2022-08-28T12:32:38.825Z,35.09
2022-08-28T12:33:38.813Z,33.75
2022-08-28T12:34:38.807Z,37.92
2022-08-28T12:35:38.794Z,39.66
2022-08-28T12:36:38.784Z,40.00
2022-08-28T12:37:51.185Z,41.31
2022-08-28T12:38:39.776Z,41.31
2022-08-28T12:39:38.755Z,42.19
2022-08-28T12:40:38.821Z,43.12
2022-08-28T12:41:38.756Z,44.02
2022-08-28T12:42:38.729Z,44.17
2022-08-28T12:43:44.309Z,44.67
2022-08-28T12:44:39.709Z,44.98
2022-08-28T12:45:38.751Z,43.85
2022-08-28T12:46:38.761Z,44.23
2022-08-28T12:47:38.690Z,42.58
2022-08-28T12:48:38.661Z,40.69
2022-08-28T12:49:38.651Z,42.07
2022-08-28T12:50:38.649Z,41.28
2022-08-28T12:51:38.656Z,40.29
2022-08-28T12:52:38.620Z,40.19